Concord, Louisiana
Current Conditions -  °F | °C
As of 10:55 PM on Friday 21 Nov 2014 (Local Time) from KBQP Reporting Station
Overcast Overcast  
Wind Chill: 59°   Ceiling: 7000
Heat Index: 59°   Visibility: 10mi
Dew Point: 49°   Wind: 6mph
Humidity: 70%   Direction: 170°S
Pressure: 30.27"   Gusts: NA
Location:  32.8667°N, 91.4273°W
Report Text: KBQP 220455Z AUTO 17005KT 10SM OVC070 15/10 A3027 RMK AO2 T01500095
Loading
Personal Weather Stations






























Interactive Weather Map New forecast layout! Learn more

10-Day Weather Forecast

Advertisements
Track Severe Weather on mobile